This is the latest recevied weather packets stored in our database for station/object AB4BJ-10. If no packets are shown the sender has not sent any weather packets the latest 10 day(s).
| Time | Temp. | Humidity | Pressure | Rain* | Wind** | Luminosity | Snow |
|---|---|---|---|---|---|---|---|
| 1788620033 | 28.89° C | 78% | 1010.8 hPa | 0 mm | - | - | - |
| 1788619431 | 28.89° C | 79% | 1010.8 hPa | 0 mm | - | - | - |
| 1788618230 | 27.78° C | 84% | 1011 hPa | 0 mm | - | - | - |
| 1788617929 | 27.78° C | 83% | 1011 hPa | 0 mm | - | - | - |
| 1788617629 | 27.22° C | 83% | 1011 hPa | 0 mm | - | - | - |
| 1788617329 | 27.22° C | 86% | 1011 hPa | 0 mm | - | - | - |
| 1788616729 | 27.22° C | 87% | 1011 hPa | 0 mm | - | - | - |
| 1788616475 | 26.67° C | 87% | 1011.1 hPa | 0 mm | - | - | - |
| 1788616428 | 26.67° C | 87% | 1011.1 hPa | 0 mm | - | - | - |
| 1788616240 | 26.67° C | 89% | 1011.1 hPa | 0 mm | - | - | - |
| 1788616172 | 26.67° C | 89% | 1011.1 hPa | 0 mm | - | - | - |
| 1788616128 | 26.67° C | 89% | 1011.1 hPa | 0 mm | - | - | - |
| 1788615859 | 26.67° C | 89% | 1011.1 hPa | 0 mm | - | - | - |
| 1788615828 | 26.67° C | 89% | 1011.1 hPa | 0 mm | - | - | - |
| 1788615527 | 26.11° C | 89% | 1011.2 hPa | 0 mm | - | - | - |
| 1788615317 | 26.11° C | 89% | 1011.4 hPa | 0 mm | - | - | - |
| 1788615231 | 26.11° C | 89% | 1011.4 hPa | 0 mm | - | - | - |
| 1788614995 | 25.56° C | 91% | 1011.3 hPa | 0 mm | - | - | - |
| 1788614927 | 25.56° C | 91% | 1011.3 hPa | 0 mm | - | - | - |
| 1788614626 | 25.56° C | 91% | 1011.3 hPa | 0 mm | - | - | - |
| 1788614326 | 25.56° C | 92% | 1011.5 hPa | 0 mm | - | - | - |
| 1788614026 | 25.56° C | 92% | 1011.4 hPa | 0 mm | - | - | - |
| 1788613726 | 25° C | 93% | 1011.5 hPa | 0 mm | - | - | - |
| 1788613126 | 25° C | 93% | 1011.5 hPa | 0 mm | - | - | - |
| 1788612825 | 24.44° C | 94% | 1011.5 hPa | 0 mm | - | - | - |
* Rain latest hour (hover to see other rain measurements)
** Current wind speed in m/s (hover to see current wind gust speed)